Time;durP1;ratioP1;P1;durP2;ratioP2;P2;SDS_P1;SDS_P2;PMS_P1;PMS_P2;Temp;Humidity;BMP_temperature;BMP_pressure;BME280_temperature;BME280_humidity;BME280_pressure;Samples;Min_cycle;Max_cycle;Signal;HPM_P1;HPM_P2
2021/01/10 00:01:13;;;;;;;1999.90;999.90;;;;;;;;;;5024308;28;20385;-81
2021/01/10 00:03:39;;;;;;;1999.90;999.90;;;;;;;;;;5021039;28;20034;-80
2021/01/10 00:06:04;;;;;;;1999.90;999.90;;;;;;;;;;5020709;28;20029;-80
2021/01/10 00:08:29;;;;;;;1999.90;999.90;;;;;;;;;;5021479;28;20565;-80
2021/01/10 00:10:55;;;;;;;1999.90;999.90;;;;;;;;;;5022470;28;20036;-81
2021/01/10 00:13:20;;;;;;;1999.90;999.90;;;;;;;;;;5020482;28;20108;-80
2021/01/10 00:15:46;;;;;;;1999.90;999.90;;;;;;;;;;5020374;28;20061;-80
2021/01/10 00:18:11;;;;;;;1999.90;999.90;;;;;;;;;;5018090;28;20038;-80
2021/01/10 00:20:38;;;;;;;1999.90;999.90;;;;;;;;;;5018371;28;20029;-80
2021/01/10 00:23:03;;;;;;;1999.90;999.90;;;;;;;;;;5019721;28;20030;-80
2021/01/10 00:25:29;;;;;;;1999.90;999.90;;;;;;;;;;5018474;28;20036;-80
2021/01/10 00:27:54;;;;;;;1999.90;999.90;;;;;;;;;;5023110;28;20045;-80
2021/01/10 00:30:21;;;;;;;1999.90;999.90;;;;;;;;;;5023268;28;20036;-80
2021/01/10 00:32:47;;;;;;;1999.90;999.90;;;;;;;;;;5018822;28;20783;-81
2021/01/10 00:35:12;;;;;;;1999.90;999.90;;;;;;;;;;5022820;28;20055;-81
2021/01/10 00:37:38;;;;;;;1999.90;999.90;;;;;;;;;;5019935;28;20030;-81
2021/01/10 00:40:04;;;;;;;1999.90;999.90;;;;;;;;;;5018940;28;20036;-81
2021/01/10 00:42:29;;;;;;;1999.90;999.90;;;;;;;;;;5021081;28;20036;-81
2021/01/10 00:44:55;;;;;;;1999.90;999.90;;;;;;;;;;5016845;28;20041;-81
2021/01/10 00:47:22;;;;;;;1999.90;999.90;;;;;;;;;;5020318;28;20114;-81
2021/01/10 00:49:48;;;;;;;1999.90;999.90;;;;;;;;;;5017012;28;20045;-81
2021/01/10 00:52:14;;;;;;;1999.90;999.90;;;;;;;;;;5022534;28;20040;-81
2021/01/10 00:54:42;;;;;;;1999.90;999.90;;;;;;;;;;5017649;28;20057;-81
2021/01/10 00:57:09;;;;;;;1999.90;999.90;;;;;;;;;;5019006;28;20026;-81
2021/01/10 00:59:34;;;;;;;1999.90;999.90;;;;;;;;;;5024418;28;20040;-81
2021/01/10 01:02:02;;;;;;;1999.90;999.90;;;;;;;;;;5020014;28;20021;-81
2021/01/10 01:04:27;;;;;;;1999.90;999.90;;;;;;;;;;5020710;28;20446;-81
2021/01/10 01:06:53;;;;;;;1999.90;999.90;;;;;;;;;;5016192;28;20033;-82
2021/01/10 01:09:18;;;;;;;1999.90;999.90;;;;;;;;;;5017470;28;20023;-81
2021/01/10 01:11:44;;;;;;;1999.90;999.90;;;;;;;;;;5021146;28;20033;-81
2021/01/10 01:14:10;;;;;;;1999.90;999.90;;;;;;;;;;5022343;28;20486;-81
2021/01/10 01:16:38;;;;;;;1999.90;999.90;;;;;;;;;;5022319;28;20033;-81
2021/01/10 01:19:03;;;;;;;1999.90;999.90;;;;;;;;;;5018981;28;20025;-81
2021/01/10 01:21:29;;;;;;;1999.90;999.90;;;;;;;;;;5018509;28;20147;-81
2021/01/10 01:23:54;;;;;;;1999.90;999.90;;;;;;;;;;5019941;28;20079;-81
2021/01/10 01:26:22;;;;;;;1999.90;999.90;;;;;;;;;;5023299;28;20405;-81
2021/01/10 01:28:47;;;;;;;1999.90;999.90;;;;;;;;;;5021506;28;20027;-81
2021/01/10 01:31:16;;;;;;;1999.90;999.90;;;;;;;;;;5021585;28;20033;-82
2021/01/10 01:33:42;;;;;;;1999.90;999.90;;;;;;;;;;5016856;28;20490;-82
2021/01/10 01:36:14;;;;;;;1999.90;999.90;;;;;;;;;;5021932;28;20033;-81
2021/01/10 01:38:40;;;;;;;1999.90;999.90;;;;;;;;;;5024176;28;20040;-82
2021/01/10 01:41:08;;;;;;;1999.90;999.90;;;;;;;;;;5024273;28;20099;-81
2021/01/10 01:43:34;;;;;;;1999.90;999.90;;;;;;;;;;5022827;28;20092;-81
2021/01/10 01:46:03;;;;;;;1999.90;999.90;;;;;;;;;;5025934;28;20433;-81
2021/01/10 01:48:29;;;;;;;1999.90;999.90;;;;;;;;;;5015070;28;20474;-81
2021/01/10 01:50:57;;;;;;;1999.90;999.90;;;;;;;;;;5017774;28;20060;-82
2021/01/10 01:53:24;;;;;;;1999.90;999.90;;;;;;;;;;5019321;28;20049;-82
2021/01/10 01:55:51;;;;;;;1999.90;999.90;;;;;;;;;;5026301;28;20026;-82
2021/01/10 01:58:16;;;;;;;1999.90;999.90;;;;;;;;;;5018342;28;20030;-82
2021/01/10 02:00:42;;;;;;;1999.90;999.90;;;;;;;;;;5023047;28;20397;-81
2021/01/10 02:03:07;;;;;;;1999.90;999.90;;;;;;;;;;5020772;28;20516;-81
2021/01/10 02:05:34;;;;;;;1999.90;999.90;;;;;;;;;;5020821;28;20196;-81
2021/01/10 02:08:05;;;;;;;1999.90;999.90;;;;;;;;;;5017201;28;20608;-81
2021/01/10 02:10:34;;;;;;;1999.90;999.90;;;;;;;;;;5024358;28;20076;-81
2021/01/10 02:13:01;;;;;;;1999.90;999.90;;;;;;;;;;5025686;28;20068;-81
2021/01/10 02:15:29;;;;;;;1999.90;999.90;;;;;;;;;;5017975;28;20195;-81
2021/01/10 02:17:56;;;;;;;1999.90;999.90;;;;;;;;;;5022149;28;20836;-81
2021/01/10 02:20:31;;;;;;;1999.90;999.90;;;;;;;;;;5019995;28;20040;-86
2021/01/10 02:23:00;;;;;;;1999.90;999.90;;;;;;;;;;5024153;28;20022;-83
2021/01/10 02:25:26;;;;;;;1999.90;999.90;;;;;;;;;;5020380;28;20415;-83
2021/01/10 02:27:51;;;;;;;1999.90;999.90;;;;;;;;;;5024783;28;20033;-82
2021/01/10 02:30:17;;;;;;;1999.90;999.90;;;;;;;;;;5023427;28;20167;-82
2021/01/10 02:32:44;;;;;;;1999.90;999.90;;;;;;;;;;5018409;28;20037;-82
2021/01/10 02:35:10;;;;;;;1999.90;999.90;;;;;;;;;;5029290;28;20347;-83
2021/01/10 02:37:35;;;;;;;1999.90;999.90;;;;;;;;;;5022995;28;20075;-83
2021/01/10 02:40:19;;;;;;;1999.90;999.90;;;;;;;;;;5026218;28;20025;-83
2021/01/10 02:42:55;;;;;;;1999.90;999.90;;;;;;;;;;5023043;28;20033;-83
2021/01/10 02:45:21;;;;;;;1999.90;999.90;;;;;;;;;;5023226;28;20045;-83
2021/01/10 02:47:47;;;;;;;1999.90;999.90;;;;;;;;;;5021612;28;20105;-83
2021/01/10 02:50:17;;;;;;;1999.90;999.90;;;;;;;;;;5018926;28;20054;-82
2021/01/10 02:52:49;;;;;;;1999.90;999.90;;;;;;;;;;5017580;28;20026;-82
2021/01/10 02:55:14;;;;;;;1999.90;999.90;;;;;;;;;;5018935;28;20044;-82
2021/01/10 02:57:41;;;;;;;1999.90;999.90;;;;;;;;;;5020118;28;20021;-82
2021/01/10 03:00:08;;;;;;;1999.90;999.90;;;;;;;;;;5023748;28;20118;-83
2021/01/10 03:02:34;;;;;;;1999.90;999.90;;;;;;;;;;5024356;28;20014;-83
2021/01/10 03:05:00;;;;;;;1999.90;999.90;;;;;;;;;;5026474;28;20037;-82
2021/01/10 03:07:26;;;;;;;1999.90;999.90;;;;;;;;;;5017693;28;20021;-83
2021/01/10 03:09:51;;;;;;;1999.90;999.90;;;;;;;;;;5019445;28;20036;-82
2021/01/10 03:12:26;;;;;;;1999.90;999.90;;;;;;;;;;5018606;28;20022;-83
2021/01/10 03:14:57;;;;;;;1999.90;999.90;;;;;;;;;;5027455;28;20030;-83
2021/01/10 03:17:31;;;;;;;1999.90;999.90;;;;;;;;;;5022005;28;20030;-82
2021/01/10 03:19:57;;;;;;;1999.90;999.90;;;;;;;;;;5021091;28;20565;-83
2021/01/10 03:22:22;;;;;;;1999.90;999.90;;;;;;;;;;5018362;28;20100;-83
2021/01/10 03:24:48;;;;;;;1999.90;999.90;;;;;;;;;;5020686;28;20665;-83
2021/01/10 03:27:13;;;;;;;1999.90;999.90;;;;;;;;;;5022983;28;20049;-82
2021/01/10 03:29:39;;;;;;;1999.90;999.90;;;;;;;;;;5017624;28;20085;-82
2021/01/10 03:32:04;;;;;;;1999.90;999.90;;;;;;;;;;5021569;28;20021;-83
2021/01/10 03:34:30;;;;;;;1999.90;999.90;;;;;;;;;;5021379;28;20029;-82
2021/01/10 03:36:55;;;;;;;1999.90;999.90;;;;;;;;;;5019156;28;20022;-83
2021/01/10 03:39:21;;;;;;;1999.90;999.90;;;;;;;;;;5019047;28;20124;-83
2021/01/10 03:41:46;;;;;;;1999.90;999.90;;;;;;;;;;5018388;28;20018;-83
2021/01/10 03:44:11;;;;;;;1999.90;999.90;;;;;;;;;;5018650;28;20041;-83
2021/01/10 03:46:37;;;;;;;1999.90;999.90;;;;;;;;;;5019206;28;20446;-83
2021/01/10 03:49:02;;;;;;;1999.90;999.90;;;;;;;;;;5020480;28;20037;-83
2021/01/10 03:51:28;;;;;;;1999.90;999.90;;;;;;;;;;5027032;28;20033;-82
2021/01/10 03:53:53;;;;;;;1999.90;999.90;;;;;;;;;;5016988;28;20747;-82
2021/01/10 03:56:19;;;;;;;1999.90;999.90;;;;;;;;;;5017367;28;20068;-83
2021/01/10 03:58:44;;;;;;;1999.90;999.90;;;;;;;;;;5015337;28;20049;-82
2021/01/10 04:01:10;;;;;;;1999.90;999.90;;;;;;;;;;5017807;28;20390;-83
2021/01/10 04:03:35;;;;;;;1999.90;999.90;;;;;;;;;;5016217;28;20485;-83
2021/01/10 04:06:00;;;;;;;1999.90;999.90;;;;;;;;;;5016540;28;20033;-83
2021/01/10 04:08:26;;;;;;;1999.90;999.90;;;;;;;;;;5020831;28;20475;-82
2021/01/10 04:10:51;;;;;;;1999.90;999.90;;;;;;;;;;5017812;28;20029;-83
2021/01/10 04:13:17;;;;;;;1999.90;999.90;;;;;;;;;;5021115;28;20041;-83
2021/01/10 04:15:42;;;;;;;1999.90;999.90;;;;;;;;;;5014987;28;20033;-83
2021/01/10 04:18:07;;;;;;;1999.90;999.90;;;;;;;;;;5014661;28;20496;-83
2021/01/10 04:20:33;;;;;;;1999.90;999.90;;;;;;;;;;5017572;28;20021;-82
2021/01/10 04:22:58;;;;;;;1999.90;999.90;;;;;;;;;;5019039;28;20026;-82
2021/01/10 04:25:23;;;;;;;1999.90;999.90;;;;;;;;;;5019576;28;20029;-82
2021/01/10 04:27:49;;;;;;;1999.90;999.90;;;;;;;;;;5020921;28;20029;-82
2021/01/10 04:30:14;;;;;;;1999.90;999.90;;;;;;;;;;5020921;28;20030;-82
2021/01/10 04:32:40;;;;;;;1999.90;999.90;;;;;;;;;;5016143;28;20160;-82
2021/01/10 04:35:05;;;;;;;1999.90;999.90;;;;;;;;;;5021723;28;20045;-82
2021/01/10 04:37:31;;;;;;;1999.90;999.90;;;;;;;;;;5013933;28;20092;-82
2021/01/10 04:39:56;;;;;;;1999.90;999.90;;;;;;;;;;5018679;28;20018;-83
2021/01/10 04:42:22;;;;;;;1999.90;999.90;;;;;;;;;;5020762;28;20466;-81
2021/01/10 04:44:47;;;;;;;1999.90;999.90;;;;;;;;;;5016878;28;20117;-81
2021/01/10 04:47:13;;;;;;;1999.90;999.90;;;;;;;;;;5017040;28;20026;-83
2021/01/10 04:49:38;;;;;;;1999.90;999.90;;;;;;;;;;5018915;28;20041;-83
2021/01/10 04:52:06;;;;;;;1999.90;999.90;;;;;;;;;;5018495;28;20034;-83
2021/01/10 04:54:35;;;;;;;1999.90;999.90;;;;;;;;;;5015373;28;20098;-83
2021/01/10 04:57:02;;;;;;;1999.90;999.90;;;;;;;;;;5016140;28;20030;-83
2021/01/10 04:59:28;;;;;;;1999.90;999.90;;;;;;;;;;5020745;28;20080;-83
2021/01/10 05:01:55;;;;;;;1999.90;999.90;;;;;;;;;;5015225;28;20033;-83
2021/01/10 05:04:21;;;;;;;1999.90;999.90;;;;;;;;;;5017138;28;20785;-83
2021/01/10 05:06:46;;;;;;;1999.90;999.90;;;;;;;;;;5021809;28;20033;-83
2021/01/10 05:09:12;;;;;;;1999.90;999.90;;;;;;;;;;5015987;28;20029;-83
2021/01/10 05:11:38;;;;;;;1999.90;999.90;;;;;;;;;;5020064;28;20112;-83
2021/01/10 05:14:03;;;;;;;1999.90;999.90;;;;;;;;;;5017284;28;20053;-83
2021/01/10 05:16:30;;;;;;;1999.90;999.90;;;;;;;;;;5018001;28;20104;-83
2021/01/10 05:18:56;;;;;;;1999.90;999.90;;;;;;;;;;5016508;28;20032;-83
2021/01/10 05:21:21;;;;;;;1999.90;999.90;;;;;;;;;;5018748;28;20053;-83
2021/01/10 05:23:51;;;;;;;1999.90;999.90;;;;;;;;;;5016066;28;20018;-83
2021/01/10 05:26:17;;;;;;;1999.90;999.90;;;;;;;;;;5016355;28;20042;-83
2021/01/10 05:28:44;;;;;;;1999.90;999.90;;;;;;;;;;5021214;28;20075;-83
2021/01/10 05:31:10;;;;;;;1999.90;999.90;;;;;;;;;;5027490;28;20048;-83
2021/01/10 05:33:53;;;;;;;1999.90;999.90;;;;;;;;;;5017354;28;20030;-83
2021/01/10 05:36:32;;;;;;;1999.90;999.90;;;;;;;;;;5016954;28;20029;-83
2021/01/10 05:38:57;;;;;;;1999.90;999.90;;;;;;;;;;5016582;28;20022;-84
2021/01/10 05:41:24;;;;;;;1999.90;999.90;;;;;;;;;;5017048;28;20044;-83
2021/01/10 05:44:00;;;;;;;1999.90;999.90;;;;;;;;;;5015235;28;20037;-83
2021/01/10 05:46:26;;;;;;;1999.90;999.90;;;;;;;;;;5017704;28;20033;-83
2021/01/10 05:48:51;;;;;;;1999.90;999.90;;;;;;;;;;5016732;28;20169;-83
2021/01/10 05:51:18;;;;;;;1999.90;999.90;;;;;;;;;;5015390;28;20520;-83
2021/01/10 05:53:43;;;;;;;1999.90;999.90;;;;;;;;;;5014395;28;20045;-83
2021/01/10 05:56:09;;;;;;;1999.90;999.90;;;;;;;;;;5013254;28;20038;-83
2021/01/10 05:58:34;;;;;;;1999.90;999.90;;;;;;;;;;5018854;28;20108;-83
2021/01/10 06:01:08;;;;;;;1999.90;999.90;;;;;;;;;;5017265;28;20494;-83
2021/01/10 06:03:35;;;;;;;1999.90;999.90;;;;;;;;;;5015316;28;20026;-83
2021/01/10 06:06:01;;;;;;;1999.90;999.90;;;;;;;;;;5020513;28;20036;-83
2021/01/10 06:08:27;;;;;;;1999.90;999.90;;;;;;;;;;5018750;28;20025;-84
2021/01/10 06:10:52;;;;;;;1999.90;999.90;;;;;;;;;;5015724;28;20021;-84
2021/01/10 06:13:18;;;;;;;1999.90;999.90;;;;;;;;;;5019549;28;20075;-84
2021/01/10 06:15:46;;;;;;;1999.90;999.90;;;;;;;;;;5023800;28;20033;-84
2021/01/10 06:18:14;;;;;;;1999.90;999.90;;;;;;;;;;5019081;28;20068;-84
2021/01/10 06:20:41;;;;;;;1999.90;999.90;;;;;;;;;;5016222;28;20030;-83
2021/01/10 06:23:06;;;;;;;1999.90;999.90;;;;;;;;;;5014956;28;20069;-83
2021/01/10 06:25:34;;;;;;;1999.90;999.90;;;;;;;;;;5020085;28;20077;-83
2021/01/10 06:28:03;;;;;;;1999.90;999.90;;;;;;;;;;5018078;28;20026;-83
2021/01/10 06:30:32;;;;;;;1999.90;999.90;;;;;;;;;;5013042;28;20021;-83
2021/01/10 06:33:00;;;;;;;1999.90;999.90;;;;;;;;;;5018575;28;20022;-83
2021/01/10 06:35:27;;;;;;;1999.90;999.90;;;;;;;;;;5013897;28;20022;-83
2021/01/10 06:37:55;;;;;;;1999.90;999.90;;;;;;;;;;5019427;28;20062;-83
2021/01/10 06:40:23;;;;;;;1999.90;999.90;;;;;;;;;;5018065;28;20025;-83
2021/01/10 06:42:49;;;;;;;1999.90;999.90;;;;;;;;;;5017325;28;20597;-80
2021/01/10 06:45:16;;;;;;;1999.90;999.90;;;;;;;;;;5017712;28;20038;-80
2021/01/10 06:47:41;;;;;;;1999.90;999.90;;;;;;;;;;5016705;28;20101;-80
2021/01/10 06:50:07;;;;;;;1999.90;999.90;;;;;;;;;;5018445;28;20128;-83
2021/01/10 06:52:32;;;;;;;1999.90;999.90;;;;;;;;;;5017658;28;20033;-82
2021/01/10 06:54:58;;;;;;;1999.90;999.90;;;;;;;;;;5017311;28;20076;-83
2021/01/10 06:57:29;;;;;;;1999.90;999.90;;;;;;;;;;5016466;28;20084;-83
2021/01/10 06:59:54;;;;;;;1999.90;999.90;;;;;;;;;;5022287;28;20048;-83
2021/01/10 07:02:20;;;;;;;1999.90;999.90;;;;;;;;;;5018752;28;20021;-83
2021/01/10 07:04:54;;;;;;;1999.90;999.90;;;;;;;;;;5016455;28;20033;-83
2021/01/10 07:07:30;;;;;;;1999.90;999.90;;;;;;;;;;5020573;28;20029;-83
2021/01/10 07:09:55;;;;;;;1999.90;999.90;;;;;;;;;;5037270;28;20120;-83
2021/01/10 07:12:21;;;;;;;1999.90;999.90;;;;;;;;;;5019026;28;20013;-83
2021/01/10 07:14:46;;;;;;;1999.90;999.90;;;;;;;;;;5019844;28;20025;-83
2021/01/10 07:17:12;;;;;;;1999.90;999.90;;;;;;;;;;5021631;28;20022;-83
2021/01/10 07:19:39;;;;;;;1999.90;999.90;;;;;;;;;;5020883;28;20030;-83
2021/01/10 07:22:20;;;;;;;1999.90;999.90;;;;;;;;;;5027429;28;20021;-83
2021/01/10 07:24:46;;;;;;;1999.90;999.90;;;;;;;;;;5022205;28;20037;-83
2021/01/10 07:27:25;;;;;;;1999.90;999.90;;;;;;;;;;5021764;28;20489;-83
2021/01/10 07:29:53;;;;;;;1999.90;999.90;;;;;;;;;;5016700;28;20021;-83
2021/01/10 07:32:30;;;;;;;1999.90;999.90;;;;;;;;;;5016334;28;20378;-83
2021/01/10 07:34:55;;;;;;;1999.90;999.90;;;;;;;;;;5021768;28;20535;-83
2021/01/10 07:37:27;;;;;;;1999.90;999.90;;;;;;;;;;5023082;28;20049;-83
2021/01/10 07:39:56;;;;;;;1999.90;999.90;;;;;;;;;;5020714;28;20470;-83
2021/01/10 07:42:22;;;;;;;1999.90;999.90;;;;;;;;;;5020983;28;20018;-83
2021/01/10 07:44:48;;;;;;;1999.90;999.90;;;;;;;;;;5022611;28;20433;-86
2021/01/10 07:47:14;;;;;;;1999.90;999.90;;;;;;;;;;5022371;28;20081;-85
2021/01/10 07:49:50;;;;;;;1999.90;999.90;;;;;;;;;;5018231;28;20058;-84
2021/01/10 07:52:16;;;;;;;1999.90;999.90;;;;;;;;;;5021448;28;20102;-82
2021/01/10 07:54:48;;;;;;;1999.90;999.90;;;;;;;;;;5017275;28;20534;-82
2021/01/10 07:57:30;;;;;;;1999.90;999.90;;;;;;;;;;5015645;28;20041;-83
2021/01/10 08:00:09;;;;;;;1999.90;999.90;;;;;;;;;;5021188;28;20033;-83
2021/01/10 08:02:52;;;;;;;1999.90;999.90;;;;;;;;;;5017134;28;20113;-83
2021/01/10 08:05:19;;;;;;;1999.90;999.90;;;;;;;;;;5017807;28;20494;-83
2021/01/10 08:07:58;;;;;;;1999.90;999.90;;;;;;;;;;5015846;28;20093;-83
2021/01/10 08:10:24;;;;;;;1999.90;999.90;;;;;;;;;;5022956;28;20033;-82
2021/01/10 08:12:50;;;;;;;1999.90;999.90;;;;;;;;;;5019709;28;20076;-83
2021/01/10 08:15:17;;;;;;;1999.90;999.90;;;;;;;;;;5018817;28;20025;-83
2021/01/10 08:17:42;;;;;;;1999.90;999.90;;;;;;;;;;5016120;28;20010;-83
2021/01/10 08:20:09;;;;;;;1999.90;999.90;;;;;;;;;;5015868;28;20026;-82
2021/01/10 08:22:34;;;;;;;1999.90;999.90;;;;;;;;;;5019194;28;20097;-82
2021/01/10 08:25:03;;;;;;;1999.90;999.90;;;;;;;;;;5020097;28;20160;-82
2021/01/10 08:27:29;;;;;;;1999.90;999.90;;;;;;;;;;5022072;28;20022;-85
2021/01/10 08:29:54;;;;;;;1999.90;999.90;;;;;;;;;;5016992;28;20517;-86
2021/01/10 08:32:20;;;;;;;1999.90;999.90;;;;;;;;;;5016122;28;20467;-83
2021/01/10 08:34:46;;;;;;;1999.90;999.90;;;;;;;;;;5020172;28;20422;-86
2021/01/10 08:37:13;;;;;;;1999.90;999.90;;;;;;;;;;5022458;28;20018;-85
2021/01/10 08:39:38;;;;;;;1999.90;999.90;;;;;;;;;;5023148;28;20486;-87
2021/01/10 08:42:04;;;;;;;1999.90;999.90;;;;;;;;;;5021890;28;20104;-85
2021/01/10 08:44:29;;;;;;;1999.90;999.90;;;;;;;;;;5020926;28;20030;-86
2021/01/10 08:46:54;;;;;;;1999.90;999.90;;;;;;;;;;5015057;28;20041;-86
2021/01/10 08:49:22;;;;;;;1999.90;999.90;;;;;;;;;;5018083;28;20067;-84
2021/01/10 08:51:48;;;;;;;1999.90;999.90;;;;;;;;;;5018802;28;20476;-82
2021/01/10 08:54:14;;;;;;;1999.90;999.90;;;;;;;;;;5015696;28;20471;-84
2021/01/10 08:56:40;;;;;;;1999.90;999.90;;;;;;;;;;5022009;28;20026;-86
2021/01/10 08:59:06;;;;;;;1999.90;999.90;;;;;;;;;;5030440;28;20037;-86
2021/01/10 09:01:31;;;;;;;1999.90;999.90;;;;;;;;;;5018783;28;20018;-82
2021/01/10 09:03:57;;;;;;;1999.90;999.90;;;;;;;;;;5032088;28;20041;-82
2021/01/10 09:06:24;;;;;;;1999.90;999.90;;;;;;;;;;5022182;28;20112;-85
2021/01/10 09:08:52;;;;;;;1999.90;999.90;;;;;;;;;;5020268;28;20109;-82
2021/01/10 09:11:20;;;;;;;1999.90;999.90;;;;;;;;;;5023213;28;20148;-83
2021/01/10 09:13:47;;;;;;;1999.90;999.90;;;;;;;;;;5026292;28;20367;-82
2021/01/10 09:16:14;;;;;;;1999.90;999.90;;;;;;;;;;5021567;28;20458;-82
2021/01/10 09:18:41;;;;;;;1999.90;999.90;;;;;;;;;;5015487;28;20028;-82
2021/01/10 09:21:13;;;;;;;1999.90;999.90;;;;;;;;;;5016105;28;20021;-83
2021/01/10 09:23:47;;;;;;;1999.90;999.90;;;;;;;;;;5021703;28;20467;-81
2021/01/10 09:26:25;;;;;;;1999.90;999.90;;;;;;;;;;5025369;28;20034;-80
2021/01/10 09:28:51;;;;;;;1999.90;999.90;;;;;;;;;;5016826;28;20436;-84
2021/01/10 09:31:17;;;;;;;1999.90;999.90;;;;;;;;;;5019963;28;20102;-82
2021/01/10 09:33:43;;;;;;;1999.90;999.90;;;;;;;;;;5019543;28;20030;-83
2021/01/10 09:36:15;;;;;;;1999.90;999.90;;;;;;;;;;5015899;28;20030;-83
2021/01/10 09:38:52;;;;;;;1999.90;999.90;;;;;;;;;;5017933;28;20022;-85
2021/01/10 09:41:18;;;;;;;1999.90;999.90;;;;;;;;;;5023707;28;20496;-88
2021/01/10 09:43:43;;;;;;;1999.90;999.90;;;;;;;;;;5026212;28;20108;-87
2021/01/10 09:46:28;;;;;;;1999.90;999.90;;;;;;;;;;5013670;28;20517;-86
2021/01/10 09:49:03;;;;;;;1999.90;999.90;;;;;;;;;;5019544;28;20507;-81
2021/01/10 09:52:06;;;;;;;1999.90;999.90;;;;;;;;;;5023054;28;20026;-83
2021/01/10 09:54:32;;;;;;;1999.90;999.90;;;;;;;;;;5000524;28;20525;-83
2021/01/10 09:57:02;;;;;;;1999.90;999.90;;;;;;;;;;5013296;28;20041;-83
2021/01/10 09:59:30;;;;;;;1999.90;999.90;;;;;;;;;;5016779;28;20679;-84
2021/01/10 10:01:56;;;;;;;1999.90;999.90;;;;;;;;;;5021833;28;20100;-87
2021/01/10 10:04:25;;;;;;;1999.90;999.90;;;;;;;;;;5018229;28;20528;-89
2021/01/10 10:06:51;;;;;;;1999.90;999.90;;;;;;;;;;5022566;28;20025;-89
2021/01/10 10:09:16;;;;;;;1999.90;999.90;;;;;;;;;;5019484;28;20103;-90
2021/01/10 10:11:42;;;;;;;1999.90;999.90;;;;;;;;;;5020691;28;20026;-89
2021/01/10 10:14:08;;;;;;;1999.90;999.90;;;;;;;;;;5022545;28;20627;-89
2021/01/10 10:16:33;;;;;;;1999.90;999.90;;;;;;;;;;5014667;28;20025;-86
2021/01/10 10:18:58;;;;;;;1999.90;999.90;;;;;;;;;;5015655;28;20076;-91
2021/01/10 10:21:24;;;;;;;1999.90;999.90;;;;;;;;;;5014651;28;20423;-91
2021/01/10 10:23:52;;;;;;;1999.90;999.90;;;;;;;;;;5015232;28;20331;-88
2021/01/10 10:26:18;;;;;;;1999.90;999.90;;;;;;;;;;5017366;28;20034;-90
2021/01/10 10:28:43;;;;;;;1999.90;999.90;;;;;;;;;;5017755;28;20607;-90
2021/01/10 10:31:10;;;;;;;1999.90;999.90;;;;;;;;;;5014925;28;20050;-89
2021/01/10 10:33:35;;;;;;;1999.90;999.90;;;;;;;;;;5018928;28;20041;-89
2021/01/10 10:36:01;;;;;;;1999.90;999.90;;;;;;;;;;5030641;28;20487;-89
2021/01/10 10:38:27;;;;;;;1999.90;999.90;;;;;;;;;;5019528;28;20524;-90
2021/01/10 10:40:53;;;;;;;1999.90;999.90;;;;;;;;;;5031301;28;20014;-88
2021/01/10 10:43:18;;;;;;;1999.90;999.90;;;;;;;;;;5025996;28;20490;-87
2021/01/10 10:45:43;;;;;;;1999.90;999.90;;;;;;;;;;5022110;28;20474;-87
2021/01/10 10:48:09;;;;;;;1999.90;999.90;;;;;;;;;;5030688;28;20607;-85
2021/01/10 10:50:35;;;;;;;1999.90;999.90;;;;;;;;;;5022513;28;20089;-84
2021/01/10 10:53:01;;;;;;;1999.90;999.90;;;;;;;;;;5021929;28;20490;-86
2021/01/10 10:55:28;;;;;;;1999.90;999.90;;;;;;;;;;5016987;28;20036;-84
2021/01/10 10:57:54;;;;;;;1999.90;999.90;;;;;;;;;;5026534;28;20707;-87
2021/01/10 11:00:19;;;;;;;1999.90;999.90;;;;;;;;;;5027001;28;20035;-85
2021/01/10 11:02:45;;;;;;;1999.90;999.90;;;;;;;;;;5027496;28;20040;-87
2021/01/10 11:05:10;;;;;;;1999.90;999.90;;;;;;;;;;5020675;28;20093;-86
2021/01/10 11:07:37;;;;;;;1999.90;999.90;;;;;;;;;;5026760;28;20076;-86
2021/01/10 11:10:02;;;;;;;1999.90;999.90;;;;;;;;;;5028487;28;20013;-86
2021/01/10 11:12:28;;;;;;;1999.90;999.90;;;;;;;;;;5021510;28;20113;-87
2021/01/10 11:14:54;;;;;;;1999.90;999.90;;;;;;;;;;5026904;28;20025;-86
2021/01/10 11:17:19;;;;;;;1999.90;999.90;;;;;;;;;;5030202;28;20773;-88
2021/01/10 11:19:48;;;;;;;1999.90;999.90;;;;;;;;;;5026575;28;20029;-86
2021/01/10 11:22:13;;;;;;;1999.90;999.90;;;;;;;;;;5023284;28;20034;-86
2021/01/10 11:24:39;;;;;;;1999.90;999.90;;;;;;;;;;5022318;28;20070;-88
2021/01/10 11:27:04;;;;;;;1999.90;999.90;;;;;;;;;;5020997;28;20144;-87
2021/01/10 11:29:30;;;;;;;1999.90;999.90;;;;;;;;;;5028315;28;20048;-86
2021/01/10 11:31:55;;;;;;;1999.90;999.90;;;;;;;;;;5023506;28;20041;-87
2021/01/10 11:34:21;;;;;;;1999.90;999.90;;;;;;;;;;5030406;28;20520;-86
2021/01/10 11:36:47;;;;;;;1999.90;999.90;;;;;;;;;;5021103;28;20474;-86
2021/01/10 11:39:13;;;;;;;1999.90;999.90;;;;;;;;;;5020617;28;20541;-85
2021/01/10 11:41:42;;;;;;;1999.90;999.90;;;;;;;;;;5024587;28;20065;-86
2021/01/10 11:44:08;;;;;;;1999.90;999.90;;;;;;;;;;5029640;28;20037;-85
2021/01/10 11:46:33;;;;;;;1999.90;999.90;;;;;;;;;;5021948;28;20033;-86
2021/01/10 11:48:59;;;;;;;1999.90;999.90;;;;;;;;;;5023589;28;20034;-85
2021/01/10 11:51:25;;;;;;;1999.90;999.90;;;;;;;;;;5020520;28;20278;-84
2021/01/10 11:53:50;;;;;;;1999.90;999.90;;;;;;;;;;5027541;28;20025;-85
2021/01/10 11:56:16;;;;;;;1999.90;999.90;;;;;;;;;;5024006;28;20399;-85
2021/01/10 11:58:42;;;;;;;1999.90;999.90;;;;;;;;;;5021057;28;20466;-85
2021/01/10 12:01:08;;;;;;;1999.90;999.90;;;;;;;;;;5021328;28;20057;-85
2021/01/10 12:03:33;;;;;;;1999.90;999.90;;;;;;;;;;5016249;28;20021;-86
2021/01/10 12:05:59;;;;;;;1999.90;999.90;;;;;;;;;;5013752;28;20092;-84
2021/01/10 12:08:24;;;;;;;1999.90;999.90;;;;;;;;;;5026385;28;20041;-87
2021/01/10 12:10:50;;;;;;;1999.90;999.90;;;;;;;;;;5022280;28;20033;-86
2021/01/10 12:13:16;;;;;;;1999.90;999.90;;;;;;;;;;5025301;28;20036;-85
2021/01/10 12:15:43;;;;;;;1999.90;999.90;;;;;;;;;;5015712;28;20061;-86
2021/01/10 12:18:09;;;;;;;1999.90;999.90;;;;;;;;;;5016633;28;20018;-84
2021/01/10 12:20:34;;;;;;;1999.90;999.90;;;;;;;;;;5013935;28;20034;-83
2021/01/10 12:23:00;;;;;;;1999.90;999.90;;;;;;;;;;5017495;28;20107;-84
2021/01/10 12:25:25;;;;;;;1999.90;999.90;;;;;;;;;;5022043;28;20052;-85
2021/01/10 12:27:51;;;;;;;1999.90;999.90;;;;;;;;;;5021039;28;20538;-86
2021/01/10 12:30:17;;;;;;;1999.90;999.90;;;;;;;;;;5019739;28;20018;-87
2021/01/10 12:32:42;;;;;;;1999.90;999.90;;;;;;;;;;5022660;28;20028;-86
2021/01/10 12:35:09;;;;;;;1999.90;999.90;;;;;;;;;;5021805;28;20041;-85
2021/01/10 12:37:34;;;;;;;1999.90;999.90;;;;;;;;;;5012258;28;20425;-85
2021/01/10 12:40:00;;;;;;;1999.90;999.90;;;;;;;;;;5018101;28;20029;-85
2021/01/10 12:42:25;;;;;;;1999.90;999.90;;;;;;;;;;5024915;28;20104;-84
2021/01/10 12:44:51;;;;;;;1999.90;999.90;;;;;;;;;;5018363;28;20030;-84
2021/01/10 12:47:16;;;;;;;1999.90;999.90;;;;;;;;;;5020633;28;20106;-85
2021/01/10 12:49:42;;;;;;;1999.90;999.90;;;;;;;;;;5019177;28;20116;-85
2021/01/10 12:52:07;;;;;;;1999.90;999.90;;;;;;;;;;5024624;28;20045;-84
2021/01/10 12:54:33;;;;;;;1999.90;999.90;;;;;;;;;;5022775;28;20049;-84
2021/01/10 12:56:59;;;;;;;1999.90;999.90;;;;;;;;;;5021236;28;20045;-85
2021/01/10 12:59:25;;;;;;;1999.90;999.90;;;;;;;;;;5020123;28;20075;-85
2021/01/10 13:01:50;;;;;;;1999.90;999.90;;;;;;;;;;5016631;28;20045;-85
2021/01/10 13:04:15;;;;;;;1999.90;999.90;;;;;;;;;;5027415;28;20030;-89
2021/01/10 13:06:41;;;;;;;1999.90;999.90;;;;;;;;;;5023500;28;20030;-88
2021/01/10 13:09:06;;;;;;;1999.90;999.90;;;;;;;;;;5018742;28;20339;-86
2021/01/10 13:11:32;;;;;;;1999.90;999.90;;;;;;;;;;5023515;28;20022;-87
2021/01/10 13:13:57;;;;;;;1999.90;999.90;;;;;;;;;;5018472;28;20112;-86
2021/01/10 13:16:23;;;;;;;1999.90;999.90;;;;;;;;;;5014267;28;20022;-87
2021/01/10 13:18:48;;;;;;;1999.90;999.90;;;;;;;;;;5021589;28;20022;-86
2021/01/10 13:21:14;;;;;;;1999.90;999.90;;;;;;;;;;5027854;28;20058;-86
2021/01/10 13:23:43;;;;;;;1999.90;999.90;;;;;;;;;;5022372;28;20034;-87
2021/01/10 13:26:09;;;;;;;1999.90;999.90;;;;;;;;;;5031229;28;20069;-91
2021/01/10 13:28:34;;;;;;;1999.90;999.90;;;;;;;;;;5017284;28;20025;-92
2021/01/10 13:31:00;;;;;;;1999.90;999.90;;;;;;;;;;5018159;28;20064;-90
2021/01/10 13:33:25;;;;;;;1999.90;999.90;;;;;;;;;;5023266;28;20033;-90
2021/01/10 13:35:51;;;;;;;1999.90;999.90;;;;;;;;;;5019270;28;20053;-91
2021/01/10 13:38:16;;;;;;;1999.90;999.90;;;;;;;;;;5024782;28;20025;-90
2021/01/10 13:40:42;;;;;;;1999.90;999.90;;;;;;;;;;5030954;28;20025;-90